sensor_id;sensor_type;location;lat;lon;timestamp;P1;durP1;ratioP1;P2;durP2;ratioP2
31308;SDS011;17936;52.446;10.840;2022-12-07T00:01:09;37.40;;;16.00;;
31308;SDS011;17936;52.446;10.840;2022-12-07T00:03:41;28.08;;;15.98;;
31308;SDS011;17936;52.446;10.840;2022-12-07T00:06:13;29.23;;;15.45;;
31308;SDS011;17936;52.446;10.840;2022-12-07T00:08:40;29.98;;;15.60;;
31308;SDS011;17936;52.446;10.840;2022-12-07T00:13:33;32.83;;;17.58;;
31308;SDS011;17936;52.446;10.840;2022-12-07T00:16:04;30.55;;;16.67;;
31308;SDS011;17936;52.446;10.840;2022-12-07T00:18:31;31.23;;;16.15;;
31308;SDS011;17936;52.446;10.840;2022-12-07T00:21:08;30.13;;;16.55;;
31308;SDS011;17936;52.446;10.840;2022-12-07T00:23:42;30.80;;;15.82;;
31308;SDS011;17936;52.446;10.840;2022-12-07T00:26:09;33.88;;;15.88;;
31308;SDS011;17936;52.446;10.840;2022-12-07T00:28:37;32.75;;;17.88;;
31308;SDS011;17936;52.446;10.840;2022-12-07T00:31:09;37.28;;;19.77;;
31308;SDS011;17936;52.446;10.840;2022-12-07T00:33:38;42.25;;;21.05;;
31308;SDS011;17936;52.446;10.840;2022-12-07T00:36:22;45.20;;;24.20;;
31308;SDS011;17936;52.446;10.840;2022-12-07T00:38:49;39.75;;;21.92;;
31308;SDS011;17936;52.446;10.840;2022-12-07T00:41:16;37.90;;;20.75;;
31308;SDS011;17936;52.446;10.840;2022-12-07T00:43:55;45.55;;;25.50;;
31308;SDS011;17936;52.446;10.840;2022-12-07T00:46:24;44.25;;;23.52;;
31308;SDS011;17936;52.446;10.840;2022-12-07T00:48:55;40.15;;;22.02;;
31308;SDS011;17936;52.446;10.840;2022-12-07T00:51:21;44.97;;;21.80;;
31308;SDS011;17936;52.446;10.840;2022-12-07T00:53:48;45.00;;;23.20;;
31308;SDS011;17936;52.446;10.840;2022-12-07T00:56:33;40.45;;;21.13;;
31308;SDS011;17936;52.446;10.840;2022-12-07T00:59:02;45.90;;;23.08;;
31308;SDS011;17936;52.446;10.840;2022-12-07T01:01:29;45.42;;;23.85;;
31308;SDS011;17936;52.446;10.840;2022-12-07T01:03:57;43.42;;;21.88;;
31308;SDS011;17936;52.446;10.840;2022-12-07T01:06:28;41.22;;;22.55;;
31308;SDS011;17936;52.446;10.840;2022-12-07T01:08:55;44.53;;;22.70;;
31308;SDS011;17936;52.446;10.840;2022-12-07T01:11:22;43.88;;;22.13;;
31308;SDS011;17936;52.446;10.840;2022-12-07T01:14:12;38.53;;;18.52;;
31308;SDS011;17936;52.446;10.840;2022-12-07T01:16:38;37.25;;;18.88;;
31308;SDS011;17936;52.446;10.840;2022-12-07T01:19:03;34.38;;;18.13;;
31308;SDS011;17936;52.446;10.840;2022-12-07T01:21:32;41.25;;;20.55;;
31308;SDS011;17936;52.446;10.840;2022-12-07T01:24:09;44.88;;;20.58;;
31308;SDS011;17936;52.446;10.840;2022-12-07T01:26:35;47.72;;;23.33;;
31308;SDS011;17936;52.446;10.840;2022-12-07T01:29:10;46.50;;;21.60;;
31308;SDS011;17936;52.446;10.840;2022-12-07T01:31:40;45.05;;;22.85;;
31308;SDS011;17936;52.446;10.840;2022-12-07T01:34:06;54.47;;;23.65;;
31308;SDS011;17936;52.446;10.840;2022-12-07T01:36:41;48.35;;;24.45;;
31308;SDS011;17936;52.446;10.840;2022-12-07T01:39:06;52.15;;;25.20;;
31308;SDS011;17936;52.446;10.840;2022-12-07T01:41:37;50.85;;;24.17;;
31308;SDS011;17936;52.446;10.840;2022-12-07T01:46:54;47.05;;;20.20;;
31308;SDS011;17936;52.446;10.840;2022-12-07T01:54:58;45.25;;;20.17;;
31308;SDS011;17936;52.446;10.840;2022-12-07T01:57:26;41.95;;;21.02;;
31308;SDS011;17936;52.446;10.840;2022-12-07T01:59:56;47.97;;;21.67;;
31308;SDS011;17936;52.446;10.840;2022-12-07T02:02:23;52.55;;;23.40;;
31308;SDS011;17936;52.446;10.840;2022-12-07T02:04:57;49.72;;;21.63;;
31308;SDS011;17936;52.446;10.840;2022-12-07T02:07:25;55.80;;;24.73;;
31308;SDS011;17936;52.446;10.840;2022-12-07T02:09:54;53.45;;;25.08;;
31308;SDS011;17936;52.446;10.840;2022-12-07T02:12:22;51.17;;;24.13;;
31308;SDS011;17936;52.446;10.840;2022-12-07T02:14:52;55.35;;;25.80;;
31308;SDS011;17936;52.446;10.840;2022-12-07T02:17:24;48.88;;;23.90;;
31308;SDS011;17936;52.446;10.840;2022-12-07T02:25:55;51.30;;;22.88;;
31308;SDS011;17936;52.446;10.840;2022-12-07T02:28:35;50.05;;;23.27;;
31308;SDS011;17936;52.446;10.840;2022-12-07T02:31:24;48.50;;;23.77;;
31308;SDS011;17936;52.446;10.840;2022-12-07T02:34:41;43.40;;;21.38;;
31308;SDS011;17936;52.446;10.840;2022-12-07T02:39:23;40.00;;;19.38;;
31308;SDS011;17936;52.446;10.840;2022-12-07T02:42:04;40.22;;;19.23;;
31308;SDS011;17936;52.446;10.840;2022-12-07T02:45:02;52.17;;;22.70;;
31308;SDS011;17936;52.446;10.840;2022-12-07T02:47:30;41.63;;;21.65;;
31308;SDS011;17936;52.446;10.840;2022-12-07T02:49:58;42.63;;;20.95;;
31308;SDS011;17936;52.446;10.840;2022-12-07T02:52:32;44.90;;;21.38;;
31308;SDS011;17936;52.446;10.840;2022-12-07T02:54:59;41.47;;;19.77;;
31308;SDS011;17936;52.446;10.840;2022-12-07T03:00:19;43.40;;;20.58;;
31308;SDS011;17936;52.446;10.840;2022-12-07T03:03:04;38.80;;;19.20;;
31308;SDS011;17936;52.446;10.840;2022-12-07T03:05:42;47.42;;;20.98;;
31308;SDS011;17936;52.446;10.840;2022-12-07T03:11:37;44.15;;;20.38;;
31308;SDS011;17936;52.446;10.840;2022-12-07T03:14:24;41.58;;;20.17;;
31308;SDS011;17936;52.446;10.840;2022-12-07T03:16:57;37.72;;;19.25;;
31308;SDS011;17936;52.446;10.840;2022-12-07T03:22:05;34.05;;;16.95;;
31308;SDS011;17936;52.446;10.840;2022-12-07T03:24:35;38.47;;;17.88;;
31308;SDS011;17936;52.446;10.840;2022-12-07T03:27:11;36.45;;;17.65;;
31308;SDS011;17936;52.446;10.840;2022-12-07T03:29:43;35.13;;;17.98;;
31308;SDS011;17936;52.446;10.840;2022-12-07T03:34:52;33.90;;;16.92;;
31308;SDS011;17936;52.446;10.840;2022-12-07T03:37:43;30.55;;;16.00;;
31308;SDS011;17936;52.446;10.840;2022-12-07T03:40:30;32.72;;;15.52;;
31308;SDS011;17936;52.446;10.840;2022-12-07T03:43:09;30.75;;;16.92;;
31308;SDS011;17936;52.446;10.840;2022-12-07T03:48:07;30.83;;;15.80;;
31308;SDS011;17936;52.446;10.840;2022-12-07T03:50:55;31.73;;;15.57;;
31308;SDS011;17936;52.446;10.840;2022-12-07T03:53:36;29.83;;;14.93;;
31308;SDS011;17936;52.446;10.840;2022-12-07T03:56:08;28.25;;;13.77;;
31308;SDS011;17936;52.446;10.840;2022-12-07T03:58:35;26.42;;;14.40;;
31308;SDS011;17936;52.446;10.840;2022-12-07T04:01:06;25.45;;;12.18;;
31308;SDS011;17936;52.446;10.840;2022-12-07T04:03:41;24.05;;;11.70;;
31308;SDS011;17936;52.446;10.840;2022-12-07T04:06:09;25.77;;;12.55;;
31308;SDS011;17936;52.446;10.840;2022-12-07T04:08:37;26.77;;;14.18;;
31308;SDS011;17936;52.446;10.840;2022-12-07T04:11:12;27.60;;;12.82;;
31308;SDS011;17936;52.446;10.840;2022-12-07T04:13:51;20.65;;;11.25;;
31308;SDS011;17936;52.446;10.840;2022-12-07T04:16:35;21.38;;;10.65;;
31308;SDS011;17936;52.446;10.840;2022-12-07T04:19:00;18.77;;;9.63;;
31308;SDS011;17936;52.446;10.840;2022-12-07T04:21:26;17.38;;;9.90;;
31308;SDS011;17936;52.446;10.840;2022-12-07T04:23:52;22.30;;;10.30;;
31308;SDS011;17936;52.446;10.840;2022-12-07T04:26:20;24.77;;;11.73;;
31308;SDS011;17936;52.446;10.840;2022-12-07T04:28:48;25.45;;;10.27;;
31308;SDS011;17936;52.446;10.840;2022-12-07T04:31:32;21.67;;;10.30;;
31308;SDS011;17936;52.446;10.840;2022-12-07T04:34:00;17.05;;;9.13;;
31308;SDS011;17936;52.446;10.840;2022-12-07T04:36:28;17.00;;;8.32;;
31308;SDS011;17936;52.446;10.840;2022-12-07T04:38:54;19.25;;;9.57;;
31308;SDS011;17936;52.446;10.840;2022-12-07T04:41:27;20.10;;;9.77;;
31308;SDS011;17936;52.446;10.840;2022-12-07T04:43:57;18.10;;;9.35;;
31308;SDS011;17936;52.446;10.840;2022-12-07T04:46:28;19.95;;;8.48;;
31308;SDS011;17936;52.446;10.840;2022-12-07T04:49:00;14.55;;;7.93;;
31308;SDS011;17936;52.446;10.840;2022-12-07T04:51:26;14.50;;;7.50;;
31308;SDS011;17936;52.446;10.840;2022-12-07T04:53:55;25.23;;;8.52;;
31308;SDS011;17936;52.446;10.840;2022-12-07T04:56:29;16.85;;;7.43;;
31308;SDS011;17936;52.446;10.840;2022-12-07T04:58:54;16.38;;;7.97;;
31308;SDS011;17936;52.446;10.840;2022-12-07T05:01:21;16.20;;;7.20;;
31308;SDS011;17936;52.446;10.840;2022-12-07T05:03:49;16.08;;;8.02;;
31308;SDS011;17936;52.446;10.840;2022-12-07T05:06:15;13.35;;;7.78;;
31308;SDS011;17936;52.446;10.840;2022-12-07T05:08:43;15.90;;;7.38;;
31308;SDS011;17936;52.446;10.840;2022-12-07T05:11:09;20.80;;;8.23;;
31308;SDS011;17936;52.446;10.840;2022-12-07T05:13:57;14.90;;;8.32;;
31308;SDS011;17936;52.446;10.840;2022-12-07T05:16:23;15.65;;;7.82;;
31308;SDS011;17936;52.446;10.840;2022-12-07T05:18:48;16.02;;;7.35;;
31308;SDS011;17936;52.446;10.840;2022-12-07T05:21:14;18.25;;;8.38;;
31308;SDS011;17936;52.446;10.840;2022-12-07T05:23:39;13.57;;;6.38;;
31308;SDS011;17936;52.446;10.840;2022-12-07T05:26:10;18.42;;;7.38;;
31308;SDS011;17936;52.446;10.840;2022-12-07T05:28:38;22.45;;;8.05;;
31308;SDS011;17936;52.446;10.840;2022-12-07T05:31:14;13.77;;;7.28;;
31308;SDS011;17936;52.446;10.840;2022-12-07T05:33:50;13.27;;;7.20;;
31308;SDS011;17936;52.446;10.840;2022-12-07T05:36:20;16.25;;;7.60;;
31308;SDS011;17936;52.446;10.840;2022-12-07T05:38:49;15.23;;;7.47;;
31308;SDS011;17936;52.446;10.840;2022-12-07T05:41:24;11.75;;;6.07;;
31308;SDS011;17936;52.446;10.840;2022-12-07T05:44:10;15.13;;;6.18;;
31308;SDS011;17936;52.446;10.840;2022-12-07T05:46:36;18.90;;;7.15;;
31308;SDS011;17936;52.446;10.840;2022-12-07T05:49:09;13.23;;;7.72;;
31308;SDS011;17936;52.446;10.840;2022-12-07T05:51:35;13.43;;;6.90;;
31308;SDS011;17936;52.446;10.840;2022-12-07T05:54:01;14.68;;;7.10;;
31308;SDS011;17936;52.446;10.840;2022-12-07T05:56:26;17.73;;;7.35;;
31308;SDS011;17936;52.446;10.840;2022-12-07T05:58:55;17.30;;;7.63;;
31308;SDS011;17936;52.446;10.840;2022-12-07T06:01:39;13.15;;;7.07;;
31308;SDS011;17936;52.446;10.840;2022-12-07T06:04:05;15.75;;;7.50;;
31308;SDS011;17936;52.446;10.840;2022-12-07T06:06:30;12.95;;;6.93;;
31308;SDS011;17936;52.446;10.840;2022-12-07T06:08:58;16.02;;;7.70;;
31308;SDS011;17936;52.446;10.840;2022-12-07T06:11:26;12.07;;;7.10;;
31308;SDS011;17936;52.446;10.840;2022-12-07T06:14:10;17.67;;;7.32;;
31308;SDS011;17936;52.446;10.840;2022-12-07T06:16:54;14.77;;;7.40;;
31308;SDS011;17936;52.446;10.840;2022-12-07T06:19:22;14.63;;;6.25;;
31308;SDS011;17936;52.446;10.840;2022-12-07T06:21:48;20.60;;;7.53;;
31308;SDS011;17936;52.446;10.840;2022-12-07T06:24:42;11.05;;;6.75;;
31308;SDS011;17936;52.446;10.840;2022-12-07T06:27:19;15.65;;;7.75;;
31308;SDS011;17936;52.446;10.840;2022-12-07T06:29:44;13.43;;;6.60;;
31308;SDS011;17936;52.446;10.840;2022-12-07T06:32:10;14.20;;;7.53;;
31308;SDS011;17936;52.446;10.840;2022-12-07T06:34:41;15.98;;;7.03;;
31308;SDS011;17936;52.446;10.840;2022-12-07T06:37:14;12.48;;;7.25;;
31308;SDS011;17936;52.446;10.840;2022-12-07T06:39:42;13.95;;;7.45;;
31308;SDS011;17936;52.446;10.840;2022-12-07T06:42:08;12.82;;;7.15;;
31308;SDS011;17936;52.446;10.840;2022-12-07T06:44:34;14.60;;;7.25;;
31308;SDS011;17936;52.446;10.840;2022-12-07T06:46:59;15.98;;;7.07;;
31308;SDS011;17936;52.446;10.840;2022-12-07T06:49:25;11.43;;;7.20;;
31308;SDS011;17936;52.446;10.840;2022-12-07T06:51:50;13.40;;;6.72;;
31308;SDS011;17936;52.446;10.840;2022-12-07T06:54:18;11.13;;;5.47;;
31308;SDS011;17936;52.446;10.840;2022-12-07T06:56:46;12.77;;;6.63;;
31308;SDS011;17936;52.446;10.840;2022-12-07T06:59:25;11.75;;;5.93;;
31308;SDS011;17936;52.446;10.840;2022-12-07T07:01:58;12.02;;;6.35;;
31308;SDS011;17936;52.446;10.840;2022-12-07T07:04:24;14.43;;;7.97;;
31308;SDS011;17936;52.446;10.840;2022-12-07T07:06:50;13.38;;;6.72;;
31308;SDS011;17936;52.446;10.840;2022-12-07T07:09:15;11.02;;;6.72;;
31308;SDS011;17936;52.446;10.840;2022-12-07T07:11:43;11.15;;;6.53;;
31308;SDS011;17936;52.446;10.840;2022-12-07T07:14:08;12.48;;;6.72;;
31308;SDS011;17936;52.446;10.840;2022-12-07T07:16:34;13.60;;;5.53;;
31308;SDS011;17936;52.446;10.840;2022-12-07T07:19:02;11.50;;;5.97;;
31308;SDS011;17936;52.446;10.840;2022-12-07T07:21:28;9.63;;;5.35;;
31308;SDS011;17936;52.446;10.840;2022-12-07T07:23:53;9.15;;;5.28;;
31308;SDS011;17936;52.446;10.840;2022-12-07T07:26:21;9.75;;;5.90;;
31308;SDS011;17936;52.446;10.840;2022-12-07T07:28:46;10.55;;;4.95;;
31308;SDS011;17936;52.446;10.840;2022-12-07T07:31:12;15.18;;;6.40;;
31308;SDS011;17936;52.446;10.840;2022-12-07T07:33:37;13.32;;;6.75;;
31308;SDS011;17936;52.446;10.840;2022-12-07T07:36:03;15.25;;;5.45;;
31308;SDS011;17936;52.446;10.840;2022-12-07T07:38:32;9.43;;;5.60;;
31308;SDS011;17936;52.446;10.840;2022-12-07T07:40:59;13.55;;;5.40;;
31308;SDS011;17936;52.446;10.840;2022-12-07T07:43:25;10.15;;;4.75;;
31308;SDS011;17936;52.446;10.840;2022-12-07T07:45:55;13.25;;;5.90;;
31308;SDS011;17936;52.446;10.840;2022-12-07T07:48:21;11.32;;;4.97;;
31308;SDS011;17936;52.446;10.840;2022-12-07T07:50:47;9.52;;;3.90;;
31308;SDS011;17936;52.446;10.840;2022-12-07T07:53:33;8.60;;;4.50;;
31308;SDS011;17936;52.446;10.840;2022-12-07T07:55:58;10.52;;;4.35;;
31308;SDS011;17936;52.446;10.840;2022-12-07T07:58:24;12.50;;;4.07;;
31308;SDS011;17936;52.446;10.840;2022-12-07T08:00:50;6.53;;;4.07;;
31308;SDS011;17936;52.446;10.840;2022-12-07T08:03:16;9.20;;;3.88;;
31308;SDS011;17936;52.446;10.840;2022-12-07T08:05:46;9.13;;;4.50;;
31308;SDS011;17936;52.446;10.840;2022-12-07T08:08:14;7.45;;;4.13;;
31308;SDS011;17936;52.446;10.840;2022-12-07T08:10:42;7.20;;;4.18;;
31308;SDS011;17936;52.446;10.840;2022-12-07T08:13:22;12.57;;;4.95;;
31308;SDS011;17936;52.446;10.840;2022-12-07T08:15:48;11.00;;;4.57;;
31308;SDS011;17936;52.446;10.840;2022-12-07T08:18:14;9.82;;;4.75;;
31308;SDS011;17936;52.446;10.840;2022-12-07T08:20:42;11.52;;;4.55;;
31308;SDS011;17936;52.446;10.840;2022-12-07T08:23:10;10.30;;;4.75;;
31308;SDS011;17936;52.446;10.840;2022-12-07T08:25:36;6.68;;;4.43;;
31308;SDS011;17936;52.446;10.840;2022-12-07T08:28:04;10.18;;;3.97;;
31308;SDS011;17936;52.446;10.840;2022-12-07T08:30:30;13.45;;;4.82;;
31308;SDS011;17936;52.446;10.840;2022-12-07T08:32:56;7.50;;;4.18;;
31308;SDS011;17936;52.446;10.840;2022-12-07T08:35:22;9.15;;;4.78;;
31308;SDS011;17936;52.446;10.840;2022-12-07T08:37:51;8.57;;;5.03;;
31308;SDS011;17936;52.446;10.840;2022-12-07T08:40:19;8.55;;;4.90;;
31308;SDS011;17936;52.446;10.840;2022-12-07T08:42:49;10.95;;;5.30;;
31308;SDS011;17936;52.446;10.840;2022-12-07T08:45:15;8.60;;;4.75;;
31308;SDS011;17936;52.446;10.840;2022-12-07T08:47:46;10.60;;;5.07;;
31308;SDS011;17936;52.446;10.840;2022-12-07T08:50:19;8.35;;;4.72;;
31308;SDS011;17936;52.446;10.840;2022-12-07T08:52:50;13.88;;;5.18;;
31308;SDS011;17936;52.446;10.840;2022-12-07T08:55:17;10.13;;;4.95;;
31308;SDS011;17936;52.446;10.840;2022-12-07T08:57:43;9.55;;;4.78;;
31308;SDS011;17936;52.446;10.840;2022-12-07T09:00:09;11.15;;;5.25;;
31308;SDS011;17936;52.446;10.840;2022-12-07T09:02:35;10.32;;;4.90;;
31308;SDS011;17936;52.446;10.840;2022-12-07T09:05:01;11.00;;;4.88;;
31308;SDS011;17936;52.446;10.840;2022-12-07T09:07:33;11.27;;;4.55;;
31308;SDS011;17936;52.446;10.840;2022-12-07T09:10:18;10.18;;;5.25;;
31308;SDS011;17936;52.446;10.840;2022-12-07T09:12:46;11.63;;;4.85;;
31308;SDS011;17936;52.446;10.840;2022-12-07T09:15:14;8.90;;;4.00;;
31308;SDS011;17936;52.446;10.840;2022-12-07T09:17:39;14.30;;;4.72;;
31308;SDS011;17936;52.446;10.840;2022-12-07T09:20:08;9.98;;;4.40;;
31308;SDS011;17936;52.446;10.840;2022-12-07T09:22:34;12.23;;;4.20;;
31308;SDS011;17936;52.446;10.840;2022-12-07T09:25:05;7.68;;;4.10;;
31308;SDS011;17936;52.446;10.840;2022-12-07T09:27:31;13.35;;;4.35;;
31308;SDS011;17936;52.446;10.840;2022-12-07T09:29:56;8.88;;;3.65;;
31308;SDS011;17936;52.446;10.840;2022-12-07T09:32:25;12.45;;;4.53;;
31308;SDS011;17936;52.446;10.840;2022-12-07T09:34:53;10.10;;;4.40;;
31308;SDS011;17936;52.446;10.840;2022-12-07T09:37:21;14.85;;;4.38;;
31308;SDS011;17936;52.446;10.840;2022-12-07T09:39:54;9.60;;;4.25;;
31308;SDS011;17936;52.446;10.840;2022-12-07T09:42:36;5.88;;;3.92;;
31308;SDS011;17936;52.446;10.840;2022-12-07T09:48:27;9.55;;;4.90;;
31308;SDS011;17936;52.446;10.840;2022-12-07T09:51:10;18.55;;;5.40;;
31308;SDS011;17936;52.446;10.840;2022-12-07T09:53:48;15.85;;;6.30;;
31308;SDS011;17936;52.446;10.840;2022-12-07T09:56:44;22.25;;;8.55;;
31308;SDS011;17936;52.446;10.840;2022-12-07T09:59:12;53.65;;;17.98;;
31308;SDS011;17936;52.446;10.840;2022-12-07T10:01:43;83.18;;;27.13;;
31308;SDS011;17936;52.446;10.840;2022-12-07T10:04:21;16.42;;;7.35;;
31308;SDS011;17936;52.446;10.840;2022-12-07T10:06:49;7.60;;;4.20;;
31308;SDS011;17936;52.446;10.840;2022-12-07T10:09:16;13.38;;;6.50;;
31308;SDS011;17936;52.446;10.840;2022-12-07T10:12:05;8.95;;;4.10;;
31308;SDS011;17936;52.446;10.840;2022-12-07T10:17:26;10.77;;;4.70;;
31308;SDS011;17936;52.446;10.840;2022-12-07T10:22:54;9.40;;;4.07;;
31308;SDS011;17936;52.446;10.840;2022-12-07T10:25:26;7.07;;;3.67;;
31308;SDS011;17936;52.446;10.840;2022-12-07T10:28:02;5.47;;;3.08;;
31308;SDS011;17936;52.446;10.840;2022-12-07T10:33:32;10.25;;;4.70;;
31308;SDS011;17936;52.446;10.840;2022-12-07T10:35:58;9.30;;;3.92;;
31308;SDS011;17936;52.446;10.840;2022-12-07T10:38:32;8.32;;;2.90;;
31308;SDS011;17936;52.446;10.840;2022-12-07T10:41:07;7.13;;;2.58;;
31308;SDS011;17936;52.446;10.840;2022-12-07T10:43:34;12.20;;;4.00;;
31308;SDS011;17936;52.446;10.840;2022-12-07T10:46:21;6.65;;;3.42;;
31308;SDS011;17936;52.446;10.840;2022-12-07T10:49:18;7.07;;;3.20;;
31308;SDS011;17936;52.446;10.840;2022-12-07T10:52:07;9.25;;;4.20;;
31308;SDS011;17936;52.446;10.840;2022-12-07T10:57:44;6.93;;;2.97;;
31308;SDS011;17936;52.446;10.840;2022-12-07T11:06:54;6.75;;;3.13;;
31308;SDS011;17936;52.446;10.840;2022-12-07T11:11:58;9.82;;;4.53;;
31308;SDS011;17936;52.446;10.840;2022-12-07T11:14:36;11.52;;;3.92;;
31308;SDS011;17936;52.446;10.840;2022-12-07T11:17:36;9.15;;;3.72;;
31308;SDS011;17936;52.446;10.840;2022-12-07T11:34:03;9.32;;;3.97;;
31308;SDS011;17936;52.446;10.840;2022-12-07T11:36:38;10.32;;;5.75;;
31308;SDS011;17936;52.446;10.840;2022-12-07T11:41:47;11.70;;;2.53;;
31308;SDS011;17936;52.446;10.840;2022-12-07T11:44:22;4.05;;;2.10;;
31308;SDS011;17936;52.446;10.840;2022-12-07T11:46:53;21.83;;;6.53;;
31308;SDS011;17936;52.446;10.840;2022-12-07T11:52:13;11.30;;;4.57;;
31308;SDS011;17936;52.446;10.840;2022-12-07T11:55:05;7.72;;;4.03;;
31308;SDS011;17936;52.446;10.840;2022-12-07T11:57:49;8.20;;;2.28;;
31308;SDS011;17936;52.446;10.840;2022-12-07T12:00:47;8.65;;;4.10;;
31308;SDS011;17936;52.446;10.840;2022-12-07T12:06:21;7.85;;;2.97;;
31308;SDS011;17936;52.446;10.840;2022-12-07T12:12:25;6.53;;;2.38;;
31308;SDS011;17936;52.446;10.840;2022-12-07T12:20:29;5.15;;;1.70;;
31308;SDS011;17936;52.446;10.840;2022-12-07T12:23:22;4.18;;;2.85;;
31308;SDS011;17936;52.446;10.840;2022-12-07T12:26:17;8.13;;;2.20;;
31308;SDS011;17936;52.446;10.840;2022-12-07T12:35:28;7.18;;;2.40;;
31308;SDS011;17936;52.446;10.840;2022-12-07T12:37:48;6.72;;;1.92;;
31308;SDS011;17936;52.446;10.840;2022-12-07T12:47:53;9.00;;;3.33;;
31308;SDS011;17936;52.446;10.840;2022-12-07T12:50:48;5.95;;;1.63;;
31308;SDS011;17936;52.446;10.840;2022-12-07T12:53:14;8.13;;;1.95;;
31308;SDS011;17936;52.446;10.840;2022-12-07T12:56:03;13.38;;;2.90;;
31308;SDS011;17936;52.446;10.840;2022-12-07T12:59:18;4.45;;;1.70;;
31308;SDS011;17936;52.446;10.840;2022-12-07T13:01:47;6.85;;;1.95;;
31308;SDS011;17936;52.446;10.840;2022-12-07T13:04:17;9.23;;;2.25;;
31308;SDS011;17936;52.446;10.840;2022-12-07T13:06:49;10.23;;;2.03;;
31308;SDS011;17936;52.446;10.840;2022-12-07T13:09:33;7.10;;;1.70;;
31308;SDS011;17936;52.446;10.840;2022-12-07T13:12:11;5.63;;;1.92;;
31308;SDS011;17936;52.446;10.840;2022-12-07T13:14:55;3.00;;;1.42;;
31308;SDS011;17936;52.446;10.840;2022-12-07T13:20:04;4.32;;;1.85;;
31308;SDS011;17936;52.446;10.840;2022-12-07T13:28:18;4.72;;;1.42;;
31308;SDS011;17936;52.446;10.840;2022-12-07T13:30:45;8.15;;;1.70;;
31308;SDS011;17936;52.446;10.840;2022-12-07T13:33:24;10.68;;;1.55;;
31308;SDS011;17936;52.446;10.840;2022-12-07T13:35:53;6.78;;;2.08;;
31308;SDS011;17936;52.446;10.840;2022-12-07T13:38:34;5.82;;;1.55;;
31308;SDS011;17936;52.446;10.840;2022-12-07T13:41:13;7.57;;;1.40;;
31308;SDS011;17936;52.446;10.840;2022-12-07T13:43:55;2.63;;;1.05;;
31308;SDS011;17936;52.446;10.840;2022-12-07T13:46:35;10.73;;;2.22;;
31308;SDS011;17936;52.446;10.840;2022-12-07T13:52:14;9.35;;;2.95;;
31308;SDS011;17936;52.446;10.840;2022-12-07T13:57:21;7.47;;;2.00;;
31308;SDS011;17936;52.446;10.840;2022-12-07T13:59:49;5.53;;;1.40;;
31308;SDS011;17936;52.446;10.840;2022-12-07T14:02:22;7.75;;;1.98;;
31308;SDS011;17936;52.446;10.840;2022-12-07T14:05:06;8.63;;;2.90;;
31308;SDS011;17936;52.446;10.840;2022-12-07T14:07:58;9.00;;;1.63;;
31308;SDS011;17936;52.446;10.840;2022-12-07T14:10:28;3.35;;;1.40;;
31308;SDS011;17936;52.446;10.840;2022-12-07T14:12:55;3.58;;;1.88;;
31308;SDS011;17936;52.446;10.840;2022-12-07T14:15:22;6.18;;;2.25;;
31308;SDS011;17936;52.446;10.840;2022-12-07T14:17:55;4.28;;;1.58;;
31308;SDS011;17936;52.446;10.840;2022-12-07T14:20:32;5.32;;;1.40;;
31308;SDS011;17936;52.446;10.840;2022-12-07T14:23:24;5.13;;;1.88;;
31308;SDS011;17936;52.446;10.840;2022-12-07T14:25:54;5.05;;;1.42;;
31308;SDS011;17936;52.446;10.840;2022-12-07T14:28:36;2.67;;;1.45;;
31308;SDS011;17936;52.446;10.840;2022-12-07T14:31:17;5.53;;;1.20;;
31308;SDS011;17936;52.446;10.840;2022-12-07T14:33:48;2.50;;;1.20;;
31308;SDS011;17936;52.446;10.840;2022-12-07T14:36:14;3.08;;;1.25;;
31308;SDS011;17936;52.446;10.840;2022-12-07T14:38:40;6.22;;;1.70;;
31308;SDS011;17936;52.446;10.840;2022-12-07T14:41:06;5.28;;;1.60;;
31308;SDS011;17936;52.446;10.840;2022-12-07T14:43:57;6.78;;;1.95;;
31308;SDS011;17936;52.446;10.840;2022-12-07T14:46:25;5.55;;;1.42;;
31308;SDS011;17936;52.446;10.840;2022-12-07T14:48:51;2.95;;;1.27;;
31308;SDS011;17936;52.446;10.840;2022-12-07T14:51:17;6.13;;;1.50;;
31308;SDS011;17936;52.446;10.840;2022-12-07T14:53:44;7.18;;;1.70;;
31308;SDS011;17936;52.446;10.840;2022-12-07T14:56:12;9.15;;;2.20;;
31308;SDS011;17936;52.446;10.840;2022-12-07T14:58:41;7.13;;;2.17;;
31308;SDS011;17936;52.446;10.840;2022-12-07T15:01:06;4.63;;;1.45;;
31308;SDS011;17936;52.446;10.840;2022-12-07T15:03:34;10.25;;;1.50;;
31308;SDS011;17936;52.446;10.840;2022-12-07T15:06:02;6.47;;;1.23;;
31308;SDS011;17936;52.446;10.840;2022-12-07T15:08:29;3.38;;;1.00;;
31308;SDS011;17936;52.446;10.840;2022-12-07T15:10:54;3.00;;;0.80;;
31308;SDS011;17936;52.446;10.840;2022-12-07T15:13:23;5.30;;;0.80;;
31308;SDS011;17936;52.446;10.840;2022-12-07T15:16:09;8.80;;;1.05;;
31308;SDS011;17936;52.446;10.840;2022-12-07T15:18:40;6.40;;;1.13;;
31308;SDS011;17936;52.446;10.840;2022-12-07T15:21:09;2.70;;;0.80;;
31308;SDS011;17936;52.446;10.840;2022-12-07T15:23:38;4.35;;;0.98;;
31308;SDS011;17936;52.446;10.840;2022-12-07T15:26:04;4.93;;;0.80;;
31308;SDS011;17936;52.446;10.840;2022-12-07T15:28:32;3.90;;;0.55;;
31308;SDS011;17936;52.446;10.840;2022-12-07T15:31:12;2.17;;;0.50;;
31308;SDS011;17936;52.446;10.840;2022-12-07T15:33:41;3.30;;;0.77;;
31308;SDS011;17936;52.446;10.840;2022-12-07T15:39:19;3.88;;;1.15;;
31308;SDS011;17936;52.446;10.840;2022-12-07T15:41:44;6.40;;;1.55;;
31308;SDS011;17936;52.446;10.840;2022-12-07T15:44:35;3.45;;;1.05;;
31308;SDS011;17936;52.446;10.840;2022-12-07T15:47:22;2.60;;;1.17;;
31308;SDS011;17936;52.446;10.840;2022-12-07T15:49:50;4.40;;;0.88;;
31308;SDS011;17936;52.446;10.840;2022-12-07T15:52:50;4.40;;;1.30;;
31308;SDS011;17936;52.446;10.840;2022-12-07T15:55:28;1.98;;;0.80;;
31308;SDS011;17936;52.446;10.840;2022-12-07T16:01:25;6.95;;;1.00;;
31308;SDS011;17936;52.446;10.840;2022-12-07T16:07:05;5.30;;;1.00;;
31308;SDS011;17936;52.446;10.840;2022-12-07T16:16:51;3.65;;;1.20;;
31308;SDS011;17936;52.446;10.840;2022-12-07T16:19:54;3.00;;;1.10;;
31308;SDS011;17936;52.446;10.840;2022-12-07T16:22:19;3.13;;;0.82;;
31308;SDS011;17936;52.446;10.840;2022-12-07T16:24:45;4.30;;;1.02;;
31308;SDS011;17936;52.446;10.840;2022-12-07T16:27:11;5.55;;;1.00;;
31308;SDS011;17936;52.446;10.840;2022-12-07T16:29:36;9.60;;;1.33;;
31308;SDS011;17936;52.446;10.840;2022-12-07T16:32:01;2.03;;;1.23;;
31308;SDS011;17936;52.446;10.840;2022-12-07T16:34:27;6.43;;;1.38;;
31308;SDS011;17936;52.446;10.840;2022-12-07T16:36:52;6.63;;;2.17;;
31308;SDS011;17936;52.446;10.840;2022-12-07T16:39:18;4.97;;;2.03;;
31308;SDS011;17936;52.446;10.840;2022-12-07T16:41:43;4.10;;;1.77;;
31308;SDS011;17936;52.446;10.840;2022-12-07T16:44:10;4.53;;;1.52;;
31308;SDS011;17936;52.446;10.840;2022-12-07T16:46:37;4.47;;;1.77;;
31308;SDS011;17936;52.446;10.840;2022-12-07T16:49:03;6.82;;;1.60;;
31308;SDS011;17936;52.446;10.840;2022-12-07T16:51:29;7.22;;;2.67;;
31308;SDS011;17936;52.446;10.840;2022-12-07T16:53:55;7.38;;;3.13;;
31308;SDS011;17936;52.446;10.840;2022-12-07T16:56:20;6.40;;;3.17;;
31308;SDS011;17936;52.446;10.840;2022-12-07T16:58:46;7.72;;;3.63;;
31308;SDS011;17936;52.446;10.840;2022-12-07T17:01:20;10.63;;;3.58;;
31308;SDS011;17936;52.446;10.840;2022-12-07T17:03:48;6.45;;;2.83;;
31308;SDS011;17936;52.446;10.840;2022-12-07T17:06:18;5.95;;;3.35;;